createdAt,value
2022-08-16T00:00:48.025Z,47.18
2022-08-16T00:04:55.624Z,46.97
2022-08-16T00:09:05.304Z,47.14
2022-08-16T00:13:11.374Z,47.89
2022-08-16T00:17:18.842Z,48.07
2022-08-16T00:21:22.591Z,47.73
2022-08-16T00:26:34.562Z,48.30
2022-08-16T00:30:00.601Z,48.09
2022-08-16T00:34:18.533Z,48.04
2022-08-16T00:38:40.322Z,47.86
2022-08-16T00:42:47.545Z,48.81
2022-08-16T00:47:06.791Z,48.86
2022-08-16T00:51:10.556Z,48.91
2022-08-16T00:55:21.930Z,49.17
2022-08-16T00:59:32.985Z,50.43
2022-08-16T01:03:41.609Z,50.57
2022-08-16T01:07:51.374Z,51.94
2022-08-16T01:11:56.889Z,52.30
2022-08-16T01:16:04.679Z,52.21
2022-08-16T01:20:24.416Z,51.93
2022-08-16T01:24:52.502Z,52.52
2022-08-16T01:28:58.420Z,52.47
2022-08-16T01:33:15.213Z,52.96
2022-08-16T01:37:19.053Z,53.23
2022-08-16T01:41:31.782Z,53.48
2022-08-16T01:45:40.304Z,53.20
2022-08-16T01:50:41.006Z,53.83
2022-08-16T01:54:09.277Z,53.53
2022-08-16T01:58:20.994Z,53.16
2022-08-16T02:02:27.488Z,54.22
2022-08-16T02:06:34.154Z,54.00
2022-08-16T02:10:40.763Z,53.27
2022-08-16T02:14:46.879Z,52.96
2022-08-16T02:18:50.136Z,53.49
2022-08-16T02:22:55.335Z,53.75
2022-08-16T02:26:58.998Z,53.45
2022-08-16T02:31:08.328Z,53.62
2022-08-16T02:35:13.473Z,54.05
2022-08-16T02:39:22.952Z,54.03
2022-08-16T02:43:28.888Z,54.86
2022-08-16T02:48:00.243Z,54.69
2022-08-16T02:52:01.254Z,55.81
2022-08-16T02:56:09.815Z,56.25
2022-08-16T03:00:34.411Z,56.61
2022-08-16T03:04:50.384Z,56.28
2022-08-16T03:08:56.184Z,57.25
2022-08-16T03:13:00.583Z,57.02
2022-08-16T03:17:04.884Z,56.67
2022-08-16T03:21:10.245Z,57.10
2022-08-16T03:25:17.993Z,57.65
2022-08-16T03:29:21.818Z,57.72
2022-08-16T03:38:01.377Z,56.21
2022-08-16T03:42:00.417Z,56.00
2022-08-16T03:46:05.304Z,55.95
2022-08-16T03:50:26.192Z,57.26
2022-08-16T03:54:32.001Z,58.24
2022-08-16T03:58:38.947Z,57.40
2022-08-16T04:02:42.832Z,57.22
2022-08-16T04:06:46.133Z,56.51
2022-08-16T04:10:51.897Z,56.89
2022-08-16T04:14:55.355Z,56.62
2022-08-16T04:19:02.434Z,56.53
2022-08-16T04:23:09.690Z,56.77
2022-08-16T04:27:14.114Z,57.21
2022-08-16T04:31:17.640Z,58.67
2022-08-16T04:35:23.471Z,57.94
2022-08-16T04:39:44.836Z,58.43
2022-08-16T04:43:51.969Z,56.93
2022-08-16T04:47:56.056Z,57.64
2022-08-16T04:51:59.450Z,59.96
2022-08-16T04:56:04.076Z,58.83
2022-08-16T05:00:25.296Z,57.94
2022-08-16T05:04:35.286Z,58.96
2022-08-16T05:08:38.890Z,57.78
2022-08-16T05:12:50.741Z,58.20
2022-08-16T05:16:56.809Z,58.09
2022-08-16T05:21:01.725Z,58.38
2022-08-16T05:25:14.701Z,58.76
2022-08-16T05:29:20.537Z,58.41
2022-08-16T05:33:26.002Z,57.79
2022-08-16T05:37:39.647Z,58.19
2022-08-16T05:41:45.479Z,56.76
2022-08-16T05:45:50.899Z,57.40
2022-08-16T05:49:56.167Z,57.55
2022-08-16T05:54:00.298Z,56.67
2022-08-16T05:58:04.368Z,56.44
2022-08-16T06:02:09.155Z,55.88
2022-08-16T06:06:14.399Z,56.18
2022-08-16T06:10:33.281Z,56.06
2022-08-16T06:14:36.607Z,56.25
2022-08-16T06:18:45.709Z,54.90
2022-08-16T06:22:57.909Z,54.45
2022-08-16T06:27:07.630Z,54.42
2022-08-16T06:31:13.282Z,54.40
2022-08-16T06:35:17.591Z,53.65
2022-08-16T06:39:22.857Z,53.53
2022-08-16T06:43:27.384Z,53.12
2022-08-16T06:47:52.890Z,52.47
2022-08-16T06:51:54.900Z,52.01
2022-08-16T06:56:14.330Z,51.87
2022-08-16T07:00:27.298Z,51.35
2022-08-16T07:04:36.916Z,50.36
2022-08-16T07:08:43.228Z,51.67
2022-08-16T07:13:03.577Z,51.48
2022-08-16T07:17:12.853Z,49.85
2022-08-16T07:21:17.179Z,49.16
2022-08-16T07:25:22.867Z,47.84
2022-08-16T07:29:27.616Z,48.01
2022-08-16T07:33:52.546Z,45.60
2022-08-16T07:37:57.978Z,43.89
2022-08-16T07:42:02.808Z,43.10
2022-08-16T07:46:38.993Z,41.36
2022-08-16T07:50:57.184Z,43.34
2022-08-16T07:54:58.545Z,41.76
2022-08-16T07:59:03.026Z,40.37
2022-08-16T08:03:08.129Z,39.67
2022-08-16T08:07:14.770Z,40.24
2022-08-16T08:11:19.599Z,38.65
2022-08-16T08:15:25.629Z,37.74
2022-08-16T08:19:31.456Z,38.68
2022-08-16T08:23:37.041Z,37.57
2022-08-16T08:27:46.363Z,37.22
2022-08-16T08:31:49.889Z,37.30
2022-08-16T08:36:01.071Z,37.95
2022-08-16T08:40:07.584Z,36.22
2022-08-16T08:44:28.527Z,34.84
2022-08-16T08:48:36.815Z,36.23
2022-08-16T08:52:41.557Z,35.34
2022-08-16T08:56:52.377Z,34.04
2022-08-16T09:00:57.093Z,35.35
2022-08-16T09:05:15.636Z,34.56
2022-08-16T09:09:20.855Z,33.84
2022-08-16T09:13:25.186Z,32.27
2022-08-16T09:17:52.104Z,30.58
2022-08-16T09:27:15.971Z,31.79
2022-08-16T09:31:22.282Z,31.45
2022-08-16T09:35:26.932Z,28.87
2022-08-16T09:39:42.179Z,31.48
2022-08-16T09:44:00.211Z,33.78
2022-08-16T09:48:08.813Z,29.56
2022-08-16T09:52:13.046Z,30.26
2022-08-16T09:56:26.406Z,30.55
2022-08-16T10:00:44.473Z,29.85
2022-08-16T10:04:54.687Z,29.79
2022-08-16T10:09:05.160Z,28.80
2022-08-16T10:13:16.770Z,26.99
2022-08-16T10:17:22.062Z,29.25
2022-08-16T10:21:29.709Z,28.35
2022-08-16T10:27:19.389Z,26.02
2022-08-16T10:30:07.088Z,28.17
2022-08-16T10:34:32.482Z,26.03
2022-08-16T10:38:40.027Z,26.10
2022-08-16T10:42:45.736Z,27.06
2022-08-16T10:46:50.462Z,27.35
2022-08-16T10:50:54.179Z,28.05
2022-08-16T10:55:40.726Z,27.62
2022-08-16T10:59:44.600Z,27.24
2022-08-16T11:03:49.222Z,25.81
2022-08-16T11:07:58.542Z,24.72
2022-08-16T11:12:13.875Z,24.52
2022-08-16T11:16:26.468Z,24.87
2022-08-16T11:20:41.545Z,25.20
2022-08-16T11:24:46.533Z,25.14
2022-08-16T11:29:13.472Z,26.95
2022-08-16T11:33:17.746Z,25.05
2022-08-16T11:37:27.571Z,24.18
2022-08-16T11:41:44.683Z,24.79
2022-08-16T11:45:57.409Z,24.30
2022-08-16T11:50:08.189Z,24.83
2022-08-16T11:54:21.378Z,22.95
2022-08-16T11:58:28.281Z,23.26
2022-08-16T12:02:33.263Z,24.72
2022-08-16T12:06:37.001Z,22.97
2022-08-16T12:10:43.205Z,23.88
2022-08-16T12:14:47.125Z,23.04
2022-08-16T12:18:52.448Z,23.76
2022-08-16T12:22:56.790Z,24.10
2022-08-16T12:27:02.550Z,24.37
2022-08-16T12:31:06.804Z,25.12
2022-08-16T12:35:14.803Z,24.03
2022-08-16T12:39:21.061Z,25.62
2022-08-16T12:43:26.660Z,23.04
2022-08-16T12:48:00.936Z,24.54
2022-08-16T12:52:33.772Z,23.96
2022-08-16T12:56:40.931Z,24.36
2022-08-16T13:00:44.485Z,22.76
2022-08-16T13:04:48.209Z,23.17
2022-08-16T13:08:57.335Z,23.08
2022-08-16T13:13:00.844Z,22.92
2022-08-16T13:17:06.927Z,22.18
2022-08-16T13:21:11.773Z,22.97
2022-08-16T13:25:21.905Z,23.81
2022-08-16T13:29:25.627Z,22.60
2022-08-16T13:33:46.379Z,24.39
2022-08-16T13:37:49.615Z,23.08
2022-08-16T13:41:56.684Z,24.18
2022-08-16T13:46:04.598Z,22.72
2022-08-16T13:50:10.176Z,23.08
2022-08-16T13:58:36.964Z,22.52
2022-08-16T14:02:49.350Z,22.42
2022-08-16T14:06:54.022Z,21.47
2022-08-16T14:10:58.770Z,22.44
2022-08-16T14:15:04.667Z,22.56
2022-08-16T14:19:08.824Z,21.96
2022-08-16T14:23:12.920Z,22.74
2022-08-16T14:27:18.637Z,23.23
2022-08-16T14:31:27.213Z,22.38
2022-08-16T14:35:48.139Z,22.73
2022-08-16T14:39:53.655Z,22.57
2022-08-16T14:43:57.576Z,21.89
2022-08-16T14:48:03.017Z,22.41
2022-08-16T14:52:09.495Z,22.12
2022-08-16T14:56:17.619Z,22.79
2022-08-16T15:00:38.507Z,22.94
2022-08-16T15:04:48.235Z,23.54
2022-08-16T15:08:53.385Z,23.88
2022-08-16T15:12:58.553Z,24.23
2022-08-16T15:17:03.412Z,22.98
2022-08-16T15:21:08.865Z,22.71
2022-08-16T15:25:15.181Z,23.62
2022-08-16T15:29:20.793Z,22.87
2022-08-16T15:33:27.469Z,23.55
2022-08-16T15:37:42.522Z,24.13
2022-08-16T15:42:01.190Z,23.36
2022-08-16T15:46:35.468Z,23.73
2022-08-16T15:50:45.912Z,23.78
2022-08-16T15:54:53.679Z,24.79
2022-08-16T15:58:59.142Z,23.95
2022-08-16T16:03:03.911Z,23.87
2022-08-16T16:07:11.567Z,24.74
2022-08-16T16:11:19.268Z,25.29
2022-08-16T16:15:30.512Z,24.06
2022-08-16T16:19:34.776Z,25.65
2022-08-16T16:23:53.824Z,24.70
2022-08-16T16:28:01.389Z,26.07
2022-08-16T16:32:07.650Z,26.09
2022-08-16T16:36:15.254Z,24.65
2022-08-16T16:40:28.819Z,24.80
2022-08-16T16:44:38.400Z,24.78
2022-08-16T16:48:54.702Z,25.80
2022-08-16T16:52:59.060Z,27.05
2022-08-16T16:57:02.830Z,25.27
2022-08-16T17:01:09.062Z,25.85
2022-08-16T17:05:12.387Z,26.79
2022-08-16T17:09:16.652Z,26.49
2022-08-16T17:13:21.746Z,28.70
2022-08-16T17:17:26.644Z,28.01
2022-08-16T17:21:30.559Z,30.92
2022-08-16T17:25:36.841Z,29.63
2022-08-16T17:29:46.086Z,29.45
2022-08-16T17:33:54.609Z,29.78
2022-08-16T17:38:03.176Z,30.07
2022-08-16T17:42:10.497Z,30.54
2022-08-16T17:46:41.762Z,30.81
2022-08-16T17:50:42.453Z,33.30
2022-08-16T17:54:46.382Z,35.13
2022-08-16T17:58:49.766Z,34.94
2022-08-16T18:02:53.633Z,33.94
2022-08-16T18:06:58.696Z,34.34
2022-08-16T18:11:03.062Z,35.06
2022-08-16T18:15:10.466Z,34.92
2022-08-16T18:19:14.198Z,36.12
2022-08-16T18:23:21.921Z,35.54
2022-08-16T18:27:29.024Z,36.38
2022-08-16T18:31:33.211Z,37.23
2022-08-16T18:35:37.122Z,37.04
2022-08-16T18:39:42.376Z,37.15
2022-08-16T18:44:23.159Z,40.65
2022-08-16T18:48:10.897Z,39.48
2022-08-16T18:52:25.200Z,40.06
2022-08-16T18:56:55.052Z,39.55
2022-08-16T19:00:56.364Z,39.69
2022-08-16T19:05:03.648Z,39.22
2022-08-16T19:09:08.705Z,40.88
2022-08-16T19:13:16.448Z,42.00
2022-08-16T19:17:20.076Z,40.69
2022-08-16T19:21:23.656Z,40.99
2022-08-16T19:25:47.130Z,40.83
2022-08-16T19:29:54.640Z,41.17
2022-08-16T19:33:58.470Z,41.52
2022-08-16T19:38:02.081Z,41.82
2022-08-16T19:42:13.711Z,40.79
2022-08-16T19:46:18.967Z,42.77
2022-08-16T19:50:36.198Z,42.38
2022-08-16T19:54:41.230Z,42.80
2022-08-16T19:59:15.911Z,43.10
2022-08-16T20:03:16.458Z,41.20
2022-08-16T20:07:20.695Z,43.00
2022-08-16T20:11:25.116Z,44.65
2022-08-16T20:15:31.672Z,44.61
2022-08-16T20:19:40.632Z,45.00
2022-08-16T20:23:44.736Z,46.24
2022-08-16T20:27:48.005Z,46.89
2022-08-16T20:31:51.635Z,46.41
2022-08-16T20:35:56.215Z,46.33
2022-08-16T20:40:27.807Z,46.82
2022-08-16T20:44:26.246Z,47.33
2022-08-16T20:48:29.423Z,47.98
2022-08-16T20:52:34.253Z,47.19
2022-08-16T20:56:38.049Z,47.53
2022-08-16T21:00:42.188Z,48.91
2022-08-16T21:04:46.381Z,48.84
2022-08-16T21:08:54.281Z,48.52
2022-08-16T21:13:02.848Z,49.24
2022-08-16T21:17:09.214Z,49.76
2022-08-16T21:21:13.616Z,49.43
2022-08-16T21:25:19.729Z,49.71
2022-08-16T21:29:39.004Z,50.40
2022-08-16T21:33:44.790Z,50.60
2022-08-16T21:38:00.096Z,51.33
2022-08-16T21:42:23.442Z,51.76
2022-08-16T21:46:27.122Z,51.34
2022-08-16T21:50:31.087Z,51.21
2022-08-16T21:54:35.752Z,52.70
2022-08-16T21:58:40.843Z,53.01
2022-08-16T22:02:46.776Z,52.56
2022-08-16T22:06:54.242Z,53.28
2022-08-16T22:11:04.463Z,53.28
2022-08-16T22:15:13.785Z,52.77
2022-08-16T22:19:17.585Z,53.24
2022-08-16T22:23:24.359Z,54.18
2022-08-16T22:27:28.517Z,54.19
2022-08-16T22:31:33.732Z,53.76
2022-08-16T22:35:45.314Z,52.45
2022-08-16T22:39:48.956Z,54.33
2022-08-16T22:43:52.062Z,54.45
2022-08-16T22:47:57.401Z,54.39
2022-08-16T22:52:06.394Z,54.05
2022-08-16T22:56:10.027Z,55.11
2022-08-16T23:00:16.867Z,54.77
2022-08-16T23:04:22.011Z,55.87
2022-08-16T23:08:38.054Z,55.71
2022-08-16T23:12:49.618Z,55.01
2022-08-16T23:16:53.005Z,55.41
2022-08-16T23:21:01.448Z,56.27
2022-08-16T23:25:05.203Z,56.88
2022-08-16T23:29:21.141Z,57.09
2022-08-16T23:33:30.284Z,57.33
2022-08-16T23:37:35.300Z,57.50
2022-08-16T23:41:38.478Z,58.79
2022-08-16T23:45:43.984Z,59.28
2022-08-16T23:50:00.170Z,57.91
2022-08-16T23:54:11.596Z,57.68
2022-08-16T23:58:17.155Z,58.72
